createdAt,value
2023-05-15T00:01:27.783Z,1.27
2023-05-15T00:03:55.214Z,1.20
2023-05-15T00:06:22.279Z,1.40
2023-05-15T00:08:48.909Z,1.27
2023-05-15T00:11:15.806Z,1.30
2023-05-15T00:13:42.447Z,1.20
2023-05-15T00:16:09.542Z,1.25
2023-05-15T00:18:36.509Z,1.38
2023-05-15T00:21:03.294Z,1.30
2023-05-15T00:23:29.948Z,1.30
2023-05-15T00:25:56.603Z,1.17
2023-05-15T00:28:23.390Z,1.40
2023-05-15T00:30:50.083Z,1.40
2023-05-15T00:33:16.955Z,1.15
2023-05-15T00:35:43.953Z,1.15
2023-05-15T00:38:11.785Z,1.20
2023-05-15T00:40:39.491Z,1.30
2023-05-15T00:43:06.403Z,1.30
2023-05-15T00:45:33.791Z,1.20
2023-05-15T00:48:01.616Z,1.17
2023-05-15T00:50:28.589Z,1.10
2023-05-15T00:52:55.927Z,1.23
2023-05-15T00:55:22.924Z,1.10
2023-05-15T00:57:51.193Z,1.15
2023-05-15T01:00:18.640Z,1.15
2023-05-15T01:02:46.474Z,1.20
2023-05-15T01:05:13.522Z,1.20
2023-05-15T01:07:50.319Z,1.20
2023-05-15T01:10:19.834Z,1.10
2023-05-15T01:12:47.501Z,1.20
2023-05-15T01:15:14.350Z,1.30
2023-05-15T01:17:41.060Z,1.10
2023-05-15T01:20:10.502Z,1.40
2023-05-15T01:22:47.825Z,1.30
2023-05-15T01:25:35.568Z,1.27
2023-05-15T01:28:23.013Z,1.38
2023-05-15T01:30:50.644Z,1.33
2023-05-15T01:33:30.456Z,1.23
2023-05-15T01:36:39.474Z,1.33
2023-05-15T01:39:13.057Z,1.13
2023-05-15T01:41:46.020Z,1.23
2023-05-15T01:44:18.734Z,1.30
2023-05-15T01:46:47.412Z,1.20
2023-05-15T01:49:16.571Z,1.20
2023-05-15T01:51:47.382Z,1.05
2023-05-15T01:54:15.107Z,1.10
2023-05-15T01:56:44.070Z,1.20
2023-05-15T01:59:13.445Z,1.20
2023-05-15T02:01:40.409Z,1.20
2023-05-15T02:04:07.349Z,1.10
2023-05-15T02:06:34.451Z,1.20
2023-05-15T02:09:02.997Z,1.10
2023-05-15T02:11:30.776Z,1.17
2023-05-15T02:13:58.091Z,1.27
2023-05-15T02:16:24.983Z,1.02
2023-05-15T02:18:52.745Z,1.25
2023-05-15T02:21:19.904Z,1.20
2023-05-15T02:23:46.649Z,1.17
2023-05-15T02:26:23.576Z,1.33
2023-05-15T02:29:14.167Z,1.25
2023-05-15T02:31:46.853Z,1.20
2023-05-15T02:34:22.521Z,1.20
2023-05-15T02:36:51.058Z,1.17
2023-05-15T02:39:18.510Z,1.27
2023-05-15T02:41:46.635Z,1.30
2023-05-15T02:44:13.897Z,1.42
2023-05-15T02:46:41.495Z,1.20
2023-05-15T02:49:08.568Z,1.20
2023-05-15T02:51:35.580Z,1.20
2023-05-15T02:54:02.398Z,1.20
2023-05-15T02:56:29.135Z,1.20
2023-05-15T02:58:56.054Z,1.10
2023-05-15T03:01:22.992Z,1.10
2023-05-15T03:03:49.891Z,1.13
2023-05-15T03:06:18.615Z,1.13
2023-05-15T03:08:45.262Z,1.25
2023-05-15T03:11:11.929Z,1.30
2023-05-15T03:13:38.700Z,1.30
2023-05-15T03:16:06.024Z,1.20
2023-05-15T03:18:32.909Z,0.98
2023-05-15T03:20:59.560Z,1.20
2023-05-15T03:23:26.165Z,1.08
2023-05-15T03:25:52.898Z,1.15
2023-05-15T03:28:19.834Z,1.17
2023-05-15T03:30:46.607Z,1.10
2023-05-15T03:33:13.333Z,1.15
2023-05-15T03:35:39.987Z,1.10
2023-05-15T03:38:06.639Z,1.05
2023-05-15T03:40:33.288Z,1.38
2023-05-15T03:42:59.935Z,1.00
2023-05-15T03:45:26.755Z,1.05
2023-05-15T03:47:53.789Z,1.20
2023-05-15T03:50:20.683Z,1.10
2023-05-15T03:52:47.454Z,1.20
2023-05-15T03:55:14.170Z,1.23
2023-05-15T03:57:41.778Z,1.10
2023-05-15T04:00:12.179Z,1.10
2023-05-15T04:02:41.802Z,1.25
2023-05-15T04:05:09.580Z,1.30
2023-05-15T04:07:36.742Z,1.25
2023-05-15T04:10:04.333Z,1.30
2023-05-15T04:12:35.215Z,1.15
2023-05-15T04:15:21.672Z,1.27
2023-05-15T04:17:50.137Z,1.25
2023-05-15T04:20:19.706Z,1.40
2023-05-15T04:22:46.797Z,1.10
2023-05-15T04:25:14.792Z,1.23
2023-05-15T04:27:42.282Z,1.30
2023-05-15T04:30:09.367Z,1.20
2023-05-15T04:32:36.264Z,1.13
2023-05-15T04:35:10.159Z,1.27
2023-05-15T04:37:38.146Z,1.48
2023-05-15T04:40:07.108Z,1.17
2023-05-15T04:42:34.647Z,1.20
2023-05-15T04:45:02.512Z,1.13
2023-05-15T04:47:29.384Z,1.30
2023-05-15T04:49:56.225Z,1.50
2023-05-15T04:52:22.934Z,1.10
2023-05-15T04:54:51.128Z,1.20
2023-05-15T04:57:17.932Z,1.30
2023-05-15T04:59:44.556Z,1.10
2023-05-15T05:02:11.315Z,1.02
2023-05-15T05:04:38.010Z,1.10
2023-05-15T05:07:05.881Z,1.02
2023-05-15T05:09:32.771Z,1.20
2023-05-15T05:12:00.020Z,1.30
2023-05-15T05:14:27.145Z,1.10
2023-05-15T05:16:53.794Z,0.90
2023-05-15T05:19:20.449Z,1.10
2023-05-15T05:21:47.126Z,1.20
2023-05-15T05:24:13.759Z,1.00
2023-05-15T05:26:43.998Z,1.00
2023-05-15T05:29:10.862Z,1.08
2023-05-15T05:31:37.644Z,1.00
2023-05-15T05:34:04.324Z,1.00
2023-05-15T05:36:31.094Z,1.10
2023-05-15T05:38:57.712Z,1.00
2023-05-15T05:41:24.370Z,0.90
2023-05-15T05:43:51.027Z,0.93
2023-05-15T05:46:17.805Z,0.90
2023-05-15T05:48:44.484Z,0.90
2023-05-15T05:51:11.257Z,0.90
2023-05-15T05:53:39.625Z,0.98
2023-05-15T05:56:06.728Z,1.00
2023-05-15T05:58:33.370Z,0.98
2023-05-15T06:01:00.907Z,1.00
2023-05-15T06:03:28.201Z,0.90
2023-05-15T06:05:55.029Z,0.90
2023-05-15T06:08:21.694Z,1.00
2023-05-15T06:10:48.327Z,1.00
2023-05-15T06:13:15.307Z,0.95
2023-05-15T06:15:42.435Z,0.93
2023-05-15T06:18:09.295Z,0.90
2023-05-15T06:20:35.978Z,0.88
2023-05-15T06:23:02.628Z,0.90
2023-05-15T06:25:29.555Z,0.80
2023-05-15T06:27:56.317Z,0.90
2023-05-15T06:30:23.181Z,0.82
2023-05-15T06:32:49.964Z,0.90
2023-05-15T06:35:16.757Z,0.70
2023-05-15T06:37:43.645Z,0.80
2023-05-15T06:40:10.747Z,0.80
2023-05-15T06:42:37.431Z,0.70
2023-05-15T06:45:04.535Z,0.60
2023-05-15T06:47:31.404Z,0.80
2023-05-15T06:49:58.004Z,0.60
2023-05-15T06:52:24.660Z,0.80
2023-05-15T06:54:52.107Z,0.90
2023-05-15T06:57:19.716Z,0.80
2023-05-15T06:59:46.432Z,0.70
2023-05-15T07:02:13.266Z,0.70
2023-05-15T07:04:40.001Z,0.60
2023-05-15T07:07:07.258Z,0.70
2023-05-15T07:09:35.469Z,0.70
2023-05-15T07:12:02.313Z,0.60
2023-05-15T07:14:29.025Z,0.70
2023-05-15T07:16:55.712Z,0.63
2023-05-15T07:19:22.676Z,0.60
2023-05-15T07:21:49.362Z,0.70
2023-05-15T07:24:16.053Z,0.70
2023-05-15T07:26:54.323Z,0.70
2023-05-15T07:29:25.305Z,0.60
2023-05-15T07:31:52.234Z,0.60
2023-05-15T07:34:18.989Z,0.70
2023-05-15T07:36:45.752Z,0.60
2023-05-15T07:39:13.318Z,0.70
2023-05-15T07:41:40.065Z,0.70
2023-05-15T07:44:06.932Z,0.70
2023-05-15T07:46:34.648Z,0.60
2023-05-15T07:49:01.455Z,0.60
2023-05-15T07:51:28.841Z,0.60
2023-05-15T07:53:55.513Z,0.60
2023-05-15T07:56:22.180Z,0.55
2023-05-15T07:58:49.002Z,0.50
2023-05-15T08:01:16.097Z,0.70
2023-05-15T08:03:42.837Z,0.70
2023-05-15T08:06:09.571Z,0.65
2023-05-15T08:08:36.276Z,0.50
2023-05-15T08:11:02.955Z,0.60
2023-05-15T08:13:29.635Z,0.60
2023-05-15T08:15:56.642Z,0.50
2023-05-15T08:18:23.473Z,0.50
2023-05-15T08:20:50.179Z,0.70
2023-05-15T08:23:16.918Z,0.60
2023-05-15T08:25:43.663Z,0.45
2023-05-15T08:28:11.030Z,0.50
2023-05-15T08:30:38.004Z,0.50
2023-05-15T08:33:04.853Z,0.47
2023-05-15T08:35:31.657Z,0.60
2023-05-15T08:37:59.218Z,0.50
2023-05-15T08:43:01.573Z,0.50
2023-05-15T08:45:28.459Z,0.60
2023-05-15T08:47:55.490Z,0.52
2023-05-15T08:50:23.125Z,0.50
2023-05-15T08:52:51.508Z,0.60
2023-05-15T08:55:18.209Z,0.55
2023-05-15T08:57:45.420Z,0.50
2023-05-15T09:00:14.742Z,0.50
2023-05-15T09:02:42.847Z,0.50
2023-05-15T09:05:10.354Z,0.55
2023-05-15T09:07:39.684Z,0.50
2023-05-15T09:10:06.831Z,0.50
2023-05-15T09:12:34.526Z,0.40
2023-05-15T09:15:17.347Z,0.50
2023-05-15T09:17:45.554Z,0.60
2023-05-15T09:20:25.120Z,0.70
2023-05-15T09:22:51.866Z,0.40
2023-05-15T09:25:44.968Z,0.50
2023-05-15T09:28:28.008Z,0.50
2023-05-15T09:31:05.756Z,0.50
2023-05-15T09:33:37.436Z,0.50
2023-05-15T09:36:05.530Z,0.45
2023-05-15T09:38:42.788Z,0.55
2023-05-15T09:41:09.584Z,0.47
2023-05-15T09:43:40.815Z,0.60
2023-05-15T09:46:08.729Z,0.50
2023-05-15T09:48:35.596Z,0.45
2023-05-15T09:51:02.430Z,0.50
2023-05-15T09:53:29.427Z,0.43
2023-05-15T09:55:56.239Z,0.30
2023-05-15T09:58:23.451Z,0.38
2023-05-15T10:00:50.478Z,0.35
2023-05-15T10:03:18.968Z,0.50
2023-05-15T10:05:45.968Z,0.50
2023-05-15T10:08:13.055Z,0.50
2023-05-15T10:10:39.906Z,0.40
2023-05-15T10:13:09.956Z,0.50
2023-05-15T10:15:37.317Z,0.45
2023-05-15T10:18:05.094Z,0.40
2023-05-15T10:20:33.373Z,0.50
2023-05-15T10:23:00.622Z,0.40
2023-05-15T10:25:45.351Z,0.52
2023-05-15T10:28:12.503Z,0.32
2023-05-15T10:30:39.218Z,0.50
2023-05-15T10:33:07.091Z,0.40
2023-05-15T10:35:39.132Z,0.40
2023-05-15T10:38:07.048Z,0.40
2023-05-15T10:40:37.321Z,0.50
2023-05-15T10:43:05.237Z,0.40
2023-05-15T10:45:32.524Z,0.40
2023-05-15T10:47:59.602Z,0.40
2023-05-15T10:50:27.266Z,0.40
2023-05-15T10:52:55.337Z,0.50
2023-05-15T10:55:22.798Z,0.30
2023-05-15T10:57:49.678Z,0.40
2023-05-15T11:00:22.523Z,0.50
2023-05-15T11:02:49.765Z,0.40
2023-05-15T11:05:16.548Z,0.40
2023-05-15T11:07:43.280Z,0.40
2023-05-15T11:10:42.189Z,0.40
2023-05-15T11:13:08.942Z,0.40
2023-05-15T11:15:46.977Z,0.30
2023-05-15T11:18:14.117Z,0.40
2023-05-15T11:20:42.507Z,0.40
2023-05-15T11:23:09.263Z,0.43
2023-05-15T11:25:36.784Z,0.35
2023-05-15T11:28:04.650Z,0.40
2023-05-15T11:30:38.940Z,0.50
2023-05-15T11:33:10.025Z,0.40
2023-05-15T11:35:36.972Z,0.40
2023-05-15T11:38:12.220Z,0.40
2023-05-15T11:40:44.706Z,0.40
2023-05-15T11:43:35.433Z,0.50
2023-05-15T11:46:09.769Z,0.40
2023-05-15T11:48:41.557Z,0.32
2023-05-15T11:51:19.582Z,0.50
2023-05-15T11:53:46.403Z,0.30
2023-05-15T11:56:21.628Z,0.40
2023-05-15T11:58:59.940Z,0.50
2023-05-15T12:01:26.817Z,0.50
2023-05-15T12:03:56.767Z,0.40
2023-05-15T12:06:23.696Z,0.40
2023-05-15T12:08:53.939Z,0.30
2023-05-15T12:11:24.624Z,0.40
2023-05-15T12:13:55.273Z,0.32
2023-05-15T12:16:26.491Z,0.40
2023-05-15T12:18:53.550Z,0.35
2023-05-15T12:21:20.989Z,0.30
2023-05-15T12:24:06.544Z,0.30
2023-05-15T12:26:35.176Z,0.38
2023-05-15T12:29:02.075Z,0.30
2023-05-15T12:31:28.960Z,0.32
2023-05-15T12:33:56.485Z,0.40
2023-05-15T12:36:23.303Z,0.40
2023-05-15T12:38:50.188Z,0.40
2023-05-15T12:41:17.069Z,0.30
2023-05-15T12:43:44.875Z,0.32
2023-05-15T12:46:13.786Z,0.32
2023-05-15T12:48:40.795Z,0.35
2023-05-15T12:51:08.140Z,0.43
2023-05-15T12:53:35.288Z,0.40
2023-05-15T12:56:02.262Z,0.40
2023-05-15T12:58:29.143Z,0.30
2023-05-15T13:00:57.082Z,0.20
2023-05-15T13:03:25.089Z,0.40
2023-05-15T13:05:52.308Z,0.40
2023-05-15T13:08:19.581Z,0.40
2023-05-15T13:10:47.399Z,0.30
2023-05-15T13:13:14.451Z,0.40
2023-05-15T13:15:44.514Z,0.40
2023-05-15T13:18:13.248Z,0.38
2023-05-15T13:20:42.388Z,0.30
2023-05-15T13:23:11.738Z,0.40
2023-05-15T13:25:38.428Z,0.30
2023-05-15T13:28:06.735Z,0.35
2023-05-15T13:30:34.447Z,0.30
2023-05-15T13:33:01.948Z,0.30
2023-05-15T13:35:28.899Z,0.35
2023-05-15T13:37:56.706Z,0.40
2023-05-15T13:40:23.762Z,0.32
2023-05-15T13:42:50.714Z,0.40
2023-05-15T13:45:17.508Z,0.32
2023-05-15T13:47:44.759Z,0.30
2023-05-15T13:50:13.454Z,0.38
2023-05-15T13:52:41.754Z,0.38
2023-05-15T13:55:12.014Z,0.30
2023-05-15T13:57:40.201Z,0.40
2023-05-15T14:00:12.658Z,0.30
2023-05-15T14:02:43.849Z,0.40
2023-05-15T14:05:11.940Z,0.40
2023-05-15T14:07:38.740Z,0.30
2023-05-15T14:10:06.404Z,0.40
2023-05-15T14:12:33.779Z,0.28
2023-05-15T14:15:01.109Z,0.30
2023-05-15T14:17:28.239Z,0.30
2023-05-15T14:19:54.981Z,0.40
2023-05-15T14:22:24.938Z,0.30
2023-05-15T14:24:52.964Z,0.30
2023-05-15T14:27:20.108Z,0.30
2023-05-15T14:29:48.295Z,0.30
2023-05-15T14:32:16.104Z,0.30
2023-05-15T14:34:43.006Z,0.32
2023-05-15T14:37:09.642Z,0.28
2023-05-15T14:39:36.390Z,0.30
2023-05-15T14:42:03.035Z,0.30
2023-05-15T14:44:30.067Z,0.30
2023-05-15T14:47:10.296Z,0.35
2023-05-15T14:49:37.764Z,0.30
2023-05-15T14:52:07.036Z,0.50
2023-05-15T14:54:33.868Z,0.40
2023-05-15T14:57:00.550Z,0.30
2023-05-15T14:59:27.824Z,0.30
2023-05-15T15:01:54.926Z,0.30
2023-05-15T15:04:21.595Z,0.30
2023-05-15T15:06:48.481Z,0.20
2023-05-15T15:09:15.190Z,0.38
2023-05-15T15:11:42.052Z,0.20
2023-05-15T15:14:08.758Z,0.30
2023-05-15T15:16:35.705Z,0.30
2023-05-15T15:19:02.493Z,0.45
2023-05-15T15:21:29.324Z,0.40
2023-05-15T15:23:57.311Z,0.30
2023-05-15T15:26:23.906Z,0.38
2023-05-15T15:28:50.556Z,0.40
2023-05-15T15:31:17.276Z,0.40
2023-05-15T15:33:44.032Z,0.20
2023-05-15T15:36:10.874Z,0.32
2023-05-15T15:38:41.817Z,0.40
2023-05-15T15:41:08.843Z,0.35
2023-05-15T15:43:35.712Z,0.32
2023-05-15T15:46:02.507Z,0.40
2023-05-15T15:48:29.444Z,0.40
2023-05-15T15:50:57.104Z,0.30
2023-05-15T15:53:23.958Z,0.32
2023-05-15T15:55:50.599Z,0.30
2023-05-15T15:58:19.733Z,0.35
2023-05-15T16:00:46.615Z,0.30
2023-05-15T16:03:13.429Z,0.30
2023-05-15T16:05:40.261Z,0.30
2023-05-15T16:08:07.299Z,0.40
2023-05-15T16:10:33.956Z,0.30
2023-05-15T16:13:00.807Z,0.38
2023-05-15T16:15:27.625Z,0.40
2023-05-15T16:17:55.105Z,0.32
2023-05-15T16:20:22.658Z,0.30
2023-05-15T16:22:49.470Z,0.50
2023-05-15T16:25:16.104Z,0.50
2023-05-15T16:27:42.945Z,0.40
2023-05-15T16:30:11.618Z,0.50
2023-05-15T16:32:38.492Z,0.30
2023-05-15T16:35:05.693Z,0.40
2023-05-15T16:37:32.582Z,0.35
2023-05-15T16:39:59.363Z,0.30
2023-05-15T16:42:26.132Z,0.30
2023-05-15T16:44:52.827Z,0.40
2023-05-15T16:47:19.462Z,0.40
2023-05-15T16:49:48.362Z,0.43
2023-05-15T16:52:17.031Z,0.30
2023-05-15T16:54:43.732Z,0.32
2023-05-15T16:57:10.547Z,0.50
2023-05-15T16:59:37.213Z,0.40
2023-05-15T17:02:04.227Z,0.35
2023-05-15T17:04:34.939Z,0.25
2023-05-15T17:07:01.660Z,0.30
2023-05-15T17:09:28.409Z,0.30
2023-05-15T17:11:55.103Z,0.40
2023-05-15T17:14:22.141Z,0.40
2023-05-15T17:16:49.041Z,0.40
2023-05-15T17:19:15.893Z,0.40
2023-05-15T17:21:42.761Z,0.40
2023-05-15T17:24:09.511Z,0.45
2023-05-15T17:26:36.151Z,0.40
2023-05-15T17:29:03.153Z,0.40
2023-05-15T17:31:29.873Z,0.50
2023-05-15T17:33:56.608Z,0.50
2023-05-15T17:36:23.610Z,0.50
2023-05-15T17:38:50.416Z,0.50
2023-05-15T17:41:17.297Z,0.50
2023-05-15T17:43:43.947Z,0.40
2023-05-15T17:46:10.629Z,0.60
2023-05-15T17:48:37.268Z,0.43
2023-05-15T17:51:03.855Z,0.50
2023-05-15T17:53:30.600Z,0.40
2023-05-15T17:55:57.450Z,0.50
2023-05-15T17:58:24.116Z,0.40
2023-05-15T18:00:53.898Z,0.60
2023-05-15T18:03:20.771Z,0.40
2023-05-15T18:05:47.887Z,0.43
2023-05-15T18:08:14.633Z,0.40
2023-05-15T18:10:41.292Z,0.40
2023-05-15T18:13:08.109Z,0.50
2023-05-15T18:15:37.616Z,0.40
2023-05-15T18:18:04.510Z,0.60
2023-05-15T18:20:31.202Z,0.50
2023-05-15T18:22:57.846Z,0.50
2023-05-15T18:25:24.918Z,0.55
2023-05-15T18:27:52.132Z,0.50
2023-05-15T18:30:19.070Z,0.50
2023-05-15T18:32:45.882Z,0.50
2023-05-15T18:35:12.781Z,0.50
2023-05-15T18:37:39.528Z,0.52
2023-05-15T18:40:06.843Z,0.50
2023-05-15T18:42:33.767Z,0.60
2023-05-15T18:45:00.783Z,0.57
2023-05-15T18:47:27.667Z,0.50
2023-05-15T18:49:54.374Z,0.50
2023-05-15T18:52:21.505Z,0.60
2023-05-15T18:54:48.813Z,0.60
2023-05-15T18:57:15.505Z,0.50
2023-05-15T18:59:42.343Z,0.50
2023-05-15T19:02:09.883Z,0.60
2023-05-15T19:04:36.760Z,0.50
2023-05-15T19:07:03.380Z,0.75
2023-05-15T19:09:30.087Z,0.60
2023-05-15T19:11:56.788Z,0.60
2023-05-15T19:14:23.400Z,0.52
2023-05-15T19:16:50.081Z,0.40
2023-05-15T19:19:18.149Z,0.70
2023-05-15T19:21:44.985Z,0.52
2023-05-15T19:24:11.688Z,0.60
2023-05-15T19:26:38.343Z,0.50
2023-05-15T19:29:05.017Z,0.50
2023-05-15T19:31:32.489Z,0.50
2023-05-15T19:34:00.215Z,0.60
2023-05-15T19:36:27.284Z,0.60
2023-05-15T19:38:54.028Z,0.70
2023-05-15T19:41:21.697Z,0.73
2023-05-15T19:43:50.717Z,0.50
2023-05-15T19:46:18.368Z,0.63
2023-05-15T19:48:45.364Z,0.60
2023-05-15T19:51:12.558Z,0.60
2023-05-15T19:53:39.387Z,0.70
2023-05-15T19:56:06.465Z,0.50
2023-05-15T19:58:33.109Z,0.50
2023-05-15T20:00:59.751Z,0.60
2023-05-15T20:03:32.667Z,0.60
2023-05-15T20:06:03.145Z,0.70
2023-05-15T20:08:30.072Z,0.60
2023-05-15T20:10:57.211Z,0.60
2023-05-15T20:13:24.134Z,0.60
2023-05-15T20:15:57.968Z,0.70
2023-05-15T20:18:25.853Z,0.60
2023-05-15T20:20:53.076Z,0.57
2023-05-15T20:23:20.673Z,0.73
2023-05-15T20:25:49.022Z,0.60
2023-05-15T20:28:15.748Z,0.90
2023-05-15T20:30:42.534Z,0.90
2023-05-15T20:33:09.351Z,0.90
2023-05-15T20:35:37.194Z,0.90
2023-05-15T20:38:04.365Z,0.75
2023-05-15T20:40:31.058Z,0.90
2023-05-15T20:42:57.796Z,0.90
2023-05-15T20:45:24.836Z,0.90
2023-05-15T20:47:51.567Z,0.90
2023-05-15T20:50:18.354Z,1.10
2023-05-15T20:52:45.984Z,1.20
2023-05-15T20:55:19.461Z,1.25
2023-05-15T20:57:47.334Z,1.25
2023-05-15T21:00:16.339Z,1.08
2023-05-15T21:02:43.950Z,1.10
2023-05-15T21:05:10.894Z,1.30
2023-05-15T21:07:37.781Z,1.23
2023-05-15T21:10:04.983Z,1.10
2023-05-15T21:12:32.781Z,1.17
2023-05-15T21:14:59.710Z,1.10
2023-05-15T21:17:26.338Z,1.20
2023-05-15T21:19:53.254Z,1.20
2023-05-15T21:22:19.912Z,1.10
2023-05-15T21:24:46.637Z,1.05
2023-05-15T21:27:13.291Z,1.10
2023-05-15T21:29:40.047Z,1.10
2023-05-15T21:32:06.990Z,1.00
2023-05-15T21:34:33.647Z,1.00
2023-05-15T21:37:00.358Z,1.10
2023-05-15T21:39:27.147Z,0.95
2023-05-15T21:41:53.809Z,1.02
2023-05-15T21:44:20.530Z,1.00
2023-05-15T21:46:47.369Z,0.95
2023-05-15T21:49:14.122Z,0.95
2023-05-15T21:51:40.733Z,0.90
2023-05-15T21:54:07.445Z,1.10
2023-05-15T21:56:34.108Z,1.00
2023-05-15T21:59:00.761Z,1.10
2023-05-15T22:01:27.537Z,0.90
2023-05-15T22:03:54.320Z,1.05
2023-05-15T22:06:21.111Z,1.05
2023-05-15T22:08:48.980Z,1.20
2023-05-15T22:11:17.174Z,1.05
2023-05-15T22:13:43.891Z,1.02
2023-05-15T22:16:10.929Z,1.10
2023-05-15T22:18:37.808Z,1.10
2023-05-15T22:21:04.686Z,1.08
2023-05-15T22:23:32.188Z,1.02
2023-05-15T22:25:58.961Z,1.00
2023-05-15T22:28:25.628Z,1.10
2023-05-15T22:30:52.307Z,1.10
2023-05-15T22:33:23.995Z,1.20
2023-05-15T22:35:54.052Z,1.10
2023-05-15T22:38:20.840Z,1.00
2023-05-15T22:40:53.831Z,1.02
2023-05-15T22:43:22.534Z,1.20
2023-05-15T22:45:49.294Z,1.05
2023-05-15T22:48:16.032Z,1.08
2023-05-15T22:50:43.973Z,1.10
2023-05-15T22:53:10.885Z,1.20
2023-05-15T22:55:37.504Z,1.05
2023-05-15T22:58:04.296Z,1.02
2023-05-15T23:00:31.267Z,1.20
2023-05-15T23:02:58.302Z,1.10
2023-05-15T23:05:25.285Z,1.20
2023-05-15T23:07:55.374Z,1.10
2023-05-15T23:10:22.090Z,1.27
2023-05-15T23:12:48.759Z,1.00
2023-05-15T23:15:16.248Z,1.00
2023-05-15T23:17:43.330Z,1.25
2023-05-15T23:20:10.638Z,1.20
2023-05-15T23:22:37.382Z,1.10
2023-05-15T23:25:04.642Z,1.10
2023-05-15T23:27:31.400Z,1.20
2023-05-15T23:29:58.080Z,1.00
2023-05-15T23:32:24.769Z,1.10
2023-05-15T23:34:52.134Z,1.20
2023-05-15T23:37:18.926Z,1.30
2023-05-15T23:39:45.639Z,1.10
2023-05-15T23:42:12.546Z,1.05
2023-05-15T23:44:39.253Z,1.20
2023-05-15T23:47:06.661Z,1.20
2023-05-15T23:49:33.710Z,1.10
2023-05-15T23:52:00.554Z,1.08
2023-05-15T23:54:27.957Z,1.10
2023-05-15T23:56:54.831Z,1.10
2023-05-15T23:59:21.567Z,1.20
